sensor_id;sensor_type;location;lat;lon;timestamp;P1;durP1;ratioP1;P2;durP2;ratioP2
14116;SDS011;7137;51.436;6.544;2022-10-16T00:01:55;4.73;;;2.80;;
14116;SDS011;7137;51.436;6.544;2022-10-16T00:04:56;6.73;;;2.70;;
14116;SDS011;7137;51.436;6.544;2022-10-16T00:07:57;6.27;;;2.77;;
14116;SDS011;7137;51.436;6.544;2022-10-16T00:11:00;5.10;;;2.63;;
14116;SDS011;7137;51.436;6.544;2022-10-16T00:14:03;4.83;;;2.40;;
14116;SDS011;7137;51.436;6.544;2022-10-16T00:17:08;5.30;;;2.53;;
14116;SDS011;7137;51.436;6.544;2022-10-16T00:20:10;4.07;;;2.40;;
14116;SDS011;7137;51.436;6.544;2022-10-16T00:23:11;5.27;;;2.50;;
14116;SDS011;7137;51.436;6.544;2022-10-16T00:26:13;4.63;;;2.30;;
14116;SDS011;7137;51.436;6.544;2022-10-16T00:29:17;3.93;;;2.20;;
14116;SDS011;7137;51.436;6.544;2022-10-16T00:32:20;5.23;;;2.43;;
14116;SDS011;7137;51.436;6.544;2022-10-16T00:35:21;3.70;;;2.30;;
14116;SDS011;7137;51.436;6.544;2022-10-16T00:38:23;5.33;;;2.67;;
14116;SDS011;7137;51.436;6.544;2022-10-16T00:41:25;4.13;;;2.50;;
14116;SDS011;7137;51.436;6.544;2022-10-16T00:44:43;5.07;;;2.30;;
14116;SDS011;7137;51.436;6.544;2022-10-16T00:47:52;6.30;;;2.60;;
14116;SDS011;7137;51.436;6.544;2022-10-16T00:50:56;4.50;;;2.27;;
14116;SDS011;7137;51.436;6.544;2022-10-16T00:53:59;5.13;;;2.00;;
14116;SDS011;7137;51.436;6.544;2022-10-16T00:57:04;5.00;;;2.20;;
14116;SDS011;7137;51.436;6.544;2022-10-16T01:00:07;4.43;;;2.17;;
14116;SDS011;7137;51.436;6.544;2022-10-16T01:03:23;4.37;;;2.07;;
14116;SDS011;7137;51.436;6.544;2022-10-16T01:06:28;5.27;;;2.27;;
14116;SDS011;7137;51.436;6.544;2022-10-16T01:09:44;4.37;;;2.00;;
14116;SDS011;7137;51.436;6.544;2022-10-16T01:12:54;4.23;;;1.80;;
14116;SDS011;7137;51.436;6.544;2022-10-16T01:16:01;4.57;;;2.00;;
14116;SDS011;7137;51.436;6.544;2022-10-16T01:19:11;4.77;;;2.00;;
14116;SDS011;7137;51.436;6.544;2022-10-16T01:22:16;3.27;;;1.83;;
14116;SDS011;7137;51.436;6.544;2022-10-16T01:25:22;3.40;;;1.90;;
14116;SDS011;7137;51.436;6.544;2022-10-16T01:28:34;3.77;;;1.90;;
14116;SDS011;7137;51.436;6.544;2022-10-16T01:31:40;4.97;;;1.90;;
14116;SDS011;7137;51.436;6.544;2022-10-16T01:34:49;3.90;;;2.07;;
14116;SDS011;7137;51.436;6.544;2022-10-16T01:37:54;3.47;;;1.80;;
14116;SDS011;7137;51.436;6.544;2022-10-16T01:41:03;4.87;;;1.90;;
14116;SDS011;7137;51.436;6.544;2022-10-16T01:44:11;3.17;;;1.77;;
14116;SDS011;7137;51.436;6.544;2022-10-16T01:47:21;3.20;;;1.80;;
14116;SDS011;7137;51.436;6.544;2022-10-16T01:50:25;4.47;;;1.90;;
14116;SDS011;7137;51.436;6.544;2022-10-16T01:53:28;4.13;;;1.70;;
14116;SDS011;7137;51.436;6.544;2022-10-16T01:56:30;2.30;;;1.60;;
14116;SDS011;7137;51.436;6.544;2022-10-16T01:59:35;4.47;;;1.60;;
14116;SDS011;7137;51.436;6.544;2022-10-16T02:02:40;3.70;;;1.50;;
14116;SDS011;7137;51.436;6.544;2022-10-16T02:05:46;4.40;;;1.60;;
14116;SDS011;7137;51.436;6.544;2022-10-16T02:08:49;3.60;;;1.70;;
14116;SDS011;7137;51.436;6.544;2022-10-16T02:11:51;3.47;;;1.70;;
14116;SDS011;7137;51.436;6.544;2022-10-16T02:14:57;3.70;;;1.47;;
14116;SDS011;7137;51.436;6.544;2022-10-16T02:17:58;3.20;;;1.37;;
14116;SDS011;7137;51.436;6.544;2022-10-16T02:21:01;3.40;;;1.50;;
14116;SDS011;7137;51.436;6.544;2022-10-16T02:24:08;2.33;;;1.27;;
14116;SDS011;7137;51.436;6.544;2022-10-16T02:27:17;2.07;;;1.40;;
14116;SDS011;7137;51.436;6.544;2022-10-16T02:30:26;3.77;;;1.70;;
14116;SDS011;7137;51.436;6.544;2022-10-16T02:33:31;4.07;;;1.30;;
14116;SDS011;7137;51.436;6.544;2022-10-16T02:36:34;3.60;;;1.47;;
14116;SDS011;7137;51.436;6.544;2022-10-16T02:39:37;2.80;;;1.40;;
14116;SDS011;7137;51.436;6.544;2022-10-16T02:42:40;2.57;;;1.20;;
14116;SDS011;7137;51.436;6.544;2022-10-16T02:45:43;4.47;;;1.60;;
14116;SDS011;7137;51.436;6.544;2022-10-16T02:48:45;1.70;;;1.20;;
14116;SDS011;7137;51.436;6.544;2022-10-16T02:51:46;2.43;;;1.10;;
14116;SDS011;7137;51.436;6.544;2022-10-16T02:54:48;1.67;;;1.17;;
14116;SDS011;7137;51.436;6.544;2022-10-16T02:57:49;3.27;;;1.50;;
14116;SDS011;7137;51.436;6.544;2022-10-16T03:00:52;2.87;;;1.30;;
14116;SDS011;7137;51.436;6.544;2022-10-16T03:03:54;3.63;;;1.03;;
14116;SDS011;7137;51.436;6.544;2022-10-16T03:06:55;3.00;;;1.10;;
14116;SDS011;7137;51.436;6.544;2022-10-16T03:09:57;2.63;;;1.07;;
14116;SDS011;7137;51.436;6.544;2022-10-16T03:13:00;2.67;;;1.23;;
14116;SDS011;7137;51.436;6.544;2022-10-16T03:16:03;2.30;;;1.20;;
14116;SDS011;7137;51.436;6.544;2022-10-16T03:19:04;3.13;;;1.03;;
14116;SDS011;7137;51.436;6.544;2022-10-16T03:22:06;3.27;;;1.20;;
14116;SDS011;7137;51.436;6.544;2022-10-16T03:25:08;1.87;;;1.10;;
14116;SDS011;7137;51.436;6.544;2022-10-16T03:28:10;2.70;;;1.00;;
14116;SDS011;7137;51.436;6.544;2022-10-16T03:31:13;1.70;;;1.13;;
14116;SDS011;7137;51.436;6.544;2022-10-16T03:34:14;3.97;;;1.20;;
14116;SDS011;7137;51.436;6.544;2022-10-16T03:37:15;4.07;;;1.10;;
14116;SDS011;7137;51.436;6.544;2022-10-16T03:40:17;3.80;;;1.07;;
14116;SDS011;7137;51.436;6.544;2022-10-16T03:43:18;1.83;;;0.90;;
14116;SDS011;7137;51.436;6.544;2022-10-16T03:46:21;3.30;;;1.17;;
14116;SDS011;7137;51.436;6.544;2022-10-16T03:49:23;2.90;;;1.10;;
14116;SDS011;7137;51.436;6.544;2022-10-16T03:52:24;1.63;;;0.97;;
14116;SDS011;7137;51.436;6.544;2022-10-16T03:55:26;3.30;;;0.90;;
14116;SDS011;7137;51.436;6.544;2022-10-16T03:58:27;2.53;;;1.03;;
14116;SDS011;7137;51.436;6.544;2022-10-16T04:01:30;2.97;;;1.10;;
14116;SDS011;7137;51.436;6.544;2022-10-16T04:04:32;3.13;;;1.20;;
14116;SDS011;7137;51.436;6.544;2022-10-16T04:07:33;3.77;;;1.13;;
14116;SDS011;7137;51.436;6.544;2022-10-16T04:10:34;2.13;;;1.07;;
14116;SDS011;7137;51.436;6.544;2022-10-16T04:13:36;2.40;;;0.90;;
14116;SDS011;7137;51.436;6.544;2022-10-16T04:16:39;2.67;;;1.10;;
14116;SDS011;7137;51.436;6.544;2022-10-16T04:19:40;1.57;;;0.90;;
14116;SDS011;7137;51.436;6.544;2022-10-16T04:22:42;3.50;;;1.13;;
14116;SDS011;7137;51.436;6.544;2022-10-16T04:25:43;3.43;;;1.10;;
14116;SDS011;7137;51.436;6.544;2022-10-16T04:28:45;2.57;;;1.10;;
14116;SDS011;7137;51.436;6.544;2022-10-16T04:31:48;3.33;;;1.23;;
14116;SDS011;7137;51.436;6.544;2022-10-16T04:34:49;4.43;;;1.03;;
14116;SDS011;7137;51.436;6.544;2022-10-16T04:37:50;3.17;;;1.03;;
14116;SDS011;7137;51.436;6.544;2022-10-16T04:40:52;3.10;;;1.20;;
14116;SDS011;7137;51.436;6.544;2022-10-16T04:43:54;3.17;;;1.20;;
14116;SDS011;7137;51.436;6.544;2022-10-16T04:46:56;2.63;;;1.13;;
14116;SDS011;7137;51.436;6.544;2022-10-16T04:49:58;1.40;;;0.93;;
14116;SDS011;7137;51.436;6.544;2022-10-16T04:53:02;2.33;;;1.00;;
14116;SDS011;7137;51.436;6.544;2022-10-16T04:56:03;1.67;;;0.90;;
14116;SDS011;7137;51.436;6.544;2022-10-16T04:59:05;2.80;;;1.00;;
14116;SDS011;7137;51.436;6.544;2022-10-16T05:02:08;2.73;;;0.93;;
14116;SDS011;7137;51.436;6.544;2022-10-16T05:05:10;2.30;;;1.17;;
14116;SDS011;7137;51.436;6.544;2022-10-16T05:08:12;3.07;;;1.00;;
14116;SDS011;7137;51.436;6.544;2022-10-16T05:11:14;2.33;;;1.10;;
14116;SDS011;7137;51.436;6.544;2022-10-16T05:14:16;3.97;;;1.20;;
14116;SDS011;7137;51.436;6.544;2022-10-16T05:17:19;2.70;;;0.90;;
14116;SDS011;7137;51.436;6.544;2022-10-16T05:20:20;2.67;;;1.20;;
14116;SDS011;7137;51.436;6.544;2022-10-16T05:23:22;2.53;;;1.27;;
14116;SDS011;7137;51.436;6.544;2022-10-16T05:26:23;2.70;;;1.30;;
14116;SDS011;7137;51.436;6.544;2022-10-16T05:29:25;2.20;;;1.20;;
14116;SDS011;7137;51.436;6.544;2022-10-16T05:32:27;2.67;;;1.20;;
14116;SDS011;7137;51.436;6.544;2022-10-16T05:35:29;1.70;;;1.00;;
14116;SDS011;7137;51.436;6.544;2022-10-16T05:38:30;3.50;;;1.23;;
14116;SDS011;7137;51.436;6.544;2022-10-16T05:41:32;2.40;;;1.10;;
14116;SDS011;7137;51.436;6.544;2022-10-16T05:44:33;1.43;;;0.90;;
14116;SDS011;7137;51.436;6.544;2022-10-16T05:47:36;2.47;;;1.10;;
14116;SDS011;7137;51.436;6.544;2022-10-16T05:50:38;2.00;;;0.97;;
14116;SDS011;7137;51.436;6.544;2022-10-16T05:53:39;2.90;;;1.10;;
14116;SDS011;7137;51.436;6.544;2022-10-16T05:56:42;2.40;;;1.07;;
14116;SDS011;7137;51.436;6.544;2022-10-16T05:59:43;3.53;;;1.10;;
14116;SDS011;7137;51.436;6.544;2022-10-16T06:02:47;2.23;;;1.20;;
14116;SDS011;7137;51.436;6.544;2022-10-16T06:05:48;2.47;;;1.20;;
14116;SDS011;7137;51.436;6.544;2022-10-16T06:08:50;2.07;;;1.40;;
14116;SDS011;7137;51.436;6.544;2022-10-16T06:11:51;2.17;;;1.30;;
14116;SDS011;7137;51.436;6.544;2022-10-16T06:14:53;3.40;;;1.30;;
14116;SDS011;7137;51.436;6.544;2022-10-16T06:17:55;2.53;;;1.20;;
14116;SDS011;7137;51.436;6.544;2022-10-16T06:20:57;3.77;;;1.40;;
14116;SDS011;7137;51.436;6.544;2022-10-16T06:23:59;2.00;;;1.30;;
14116;SDS011;7137;51.436;6.544;2022-10-16T06:27:00;3.10;;;1.50;;
14116;SDS011;7137;51.436;6.544;2022-10-16T06:30:02;3.03;;;1.60;;
14116;SDS011;7137;51.436;6.544;2022-10-16T06:33:05;2.93;;;1.47;;
14116;SDS011;7137;51.436;6.544;2022-10-16T06:36:07;4.73;;;1.30;;
14116;SDS011;7137;51.436;6.544;2022-10-16T06:39:11;2.83;;;1.30;;
14116;SDS011;7137;51.436;6.544;2022-10-16T06:42:12;3.40;;;1.60;;
14116;SDS011;7137;51.436;6.544;2022-10-16T06:45:14;3.20;;;1.60;;
14116;SDS011;7137;51.436;6.544;2022-10-16T06:48:16;2.77;;;1.40;;
14116;SDS011;7137;51.436;6.544;2022-10-16T06:51:18;2.07;;;1.50;;
14116;SDS011;7137;51.436;6.544;2022-10-16T06:54:22;2.97;;;1.53;;
14116;SDS011;7137;51.436;6.544;2022-10-16T06:57:23;3.53;;;1.47;;
14116;SDS011;7137;51.436;6.544;2022-10-16T07:00:24;3.87;;;1.70;;
14116;SDS011;7137;51.436;6.544;2022-10-16T07:03:27;3.70;;;2.00;;
14116;SDS011;7137;51.436;6.544;2022-10-16T07:06:30;3.10;;;1.73;;
14116;SDS011;7137;51.436;6.544;2022-10-16T07:09:34;3.77;;;1.70;;
14116;SDS011;7137;51.436;6.544;2022-10-16T07:12:36;2.87;;;1.73;;
14116;SDS011;7137;51.436;6.544;2022-10-16T07:15:37;3.00;;;1.80;;
14116;SDS011;7137;51.436;6.544;2022-10-16T07:18:40;4.93;;;1.90;;
14116;SDS011;7137;51.436;6.544;2022-10-16T07:21:43;3.27;;;1.97;;
14116;SDS011;7137;51.436;6.544;2022-10-16T07:24:45;2.77;;;1.80;;
14116;SDS011;7137;51.436;6.544;2022-10-16T07:27:46;6.07;;;2.10;;
14116;SDS011;7137;51.436;6.544;2022-10-16T07:30:48;4.97;;;2.20;;
14116;SDS011;7137;51.436;6.544;2022-10-16T07:33:51;3.50;;;2.00;;
14116;SDS011;7137;51.436;6.544;2022-10-16T07:36:52;3.77;;;1.97;;
14116;SDS011;7137;51.436;6.544;2022-10-16T07:39:55;4.10;;;2.30;;
14116;SDS011;7137;51.436;6.544;2022-10-16T07:42:56;4.23;;;2.03;;
14116;SDS011;7137;51.436;6.544;2022-10-16T07:45:58;3.13;;;1.73;;
14116;SDS011;7137;51.436;6.544;2022-10-16T07:49:01;5.80;;;1.80;;
14116;SDS011;7137;51.436;6.544;2022-10-16T07:52:02;3.57;;;1.60;;
14116;SDS011;7137;51.436;6.544;2022-10-16T07:55:04;3.23;;;1.47;;
14116;SDS011;7137;51.436;6.544;2022-10-16T07:58:06;6.00;;;1.73;;
14116;SDS011;7137;51.436;6.544;2022-10-16T08:01:09;3.23;;;1.60;;
14116;SDS011;7137;51.436;6.544;2022-10-16T08:04:13;3.47;;;1.77;;
14116;SDS011;7137;51.436;6.544;2022-10-16T08:07:14;4.60;;;1.40;;
14116;SDS011;7137;51.436;6.544;2022-10-16T08:10:16;4.20;;;1.53;;
14116;SDS011;7137;51.436;6.544;2022-10-16T08:13:19;4.00;;;1.43;;
14116;SDS011;7137;51.436;6.544;2022-10-16T08:16:20;3.27;;;1.13;;
14116;SDS011;7137;51.436;6.544;2022-10-16T08:19:23;2.33;;;1.33;;
14116;SDS011;7137;51.436;6.544;2022-10-16T08:22:25;2.63;;;1.20;;
14116;SDS011;7137;51.436;6.544;2022-10-16T08:25:26;3.07;;;1.20;;
14116;SDS011;7137;51.436;6.544;2022-10-16T08:28:28;3.43;;;1.20;;
14116;SDS011;7137;51.436;6.544;2022-10-16T08:31:30;3.90;;;1.13;;
14116;SDS011;7137;51.436;6.544;2022-10-16T08:34:32;4.57;;;1.40;;
14116;SDS011;7137;51.436;6.544;2022-10-16T08:37:34;2.83;;;1.20;;
14116;SDS011;7137;51.436;6.544;2022-10-16T08:40:36;3.10;;;1.20;;
14116;SDS011;7137;51.436;6.544;2022-10-16T08:43:42;2.67;;;1.17;;
14116;SDS011;7137;51.436;6.544;2022-10-16T08:46:56;2.93;;;1.20;;
14116;SDS011;7137;51.436;6.544;2022-10-16T08:50:11;2.93;;;1.10;;
14116;SDS011;7137;51.436;6.544;2022-10-16T08:53:15;5.17;;;1.10;;
14116;SDS011;7137;51.436;6.544;2022-10-16T08:56:22;5.20;;;1.20;;
14116;SDS011;7137;51.436;6.544;2022-10-16T08:59:25;2.73;;;1.30;;
14116;SDS011;7137;51.436;6.544;2022-10-16T09:02:29;3.03;;;1.10;;
14116;SDS011;7137;51.436;6.544;2022-10-16T09:05:44;2.73;;;0.97;;
14116;SDS011;7137;51.436;6.544;2022-10-16T09:09:07;3.73;;;1.07;;
14116;SDS011;7137;51.436;6.544;2022-10-16T09:12:28;3.57;;;1.10;;
14116;SDS011;7137;51.436;6.544;2022-10-16T09:15:39;2.57;;;0.80;;
14116;SDS011;7137;51.436;6.544;2022-10-16T09:18:50;3.80;;;1.13;;
14116;SDS011;7137;51.436;6.544;2022-10-16T09:22:00;2.23;;;1.20;;
14116;SDS011;7137;51.436;6.544;2022-10-16T09:25:10;2.73;;;1.07;;
14116;SDS011;7137;51.436;6.544;2022-10-16T09:28:14;3.03;;;1.03;;
14116;SDS011;7137;51.436;6.544;2022-10-16T09:31:17;3.73;;;0.90;;
14116;SDS011;7137;51.436;6.544;2022-10-16T09:34:21;3.23;;;1.30;;
14116;SDS011;7137;51.436;6.544;2022-10-16T09:37:31;3.87;;;0.97;;
14116;SDS011;7137;51.436;6.544;2022-10-16T09:40:33;2.03;;;0.80;;
14116;SDS011;7137;51.436;6.544;2022-10-16T09:43:36;3.63;;;1.13;;
14116;SDS011;7137;51.436;6.544;2022-10-16T09:46:41;3.27;;;1.00;;
14116;SDS011;7137;51.436;6.544;2022-10-16T09:49:50;3.27;;;1.03;;
14116;SDS011;7137;51.436;6.544;2022-10-16T09:53:04;4.13;;;0.97;;
14116;SDS011;7137;51.436;6.544;2022-10-16T09:56:06;3.17;;;1.30;;
14116;SDS011;7137;51.436;6.544;2022-10-16T09:59:11;3.60;;;1.20;;
14116;SDS011;7137;51.436;6.544;2022-10-16T10:02:13;3.70;;;1.13;;
14116;SDS011;7137;51.436;6.544;2022-10-16T10:05:17;4.67;;;1.00;;
14116;SDS011;7137;51.436;6.544;2022-10-16T10:08:23;2.70;;;1.00;;
14116;SDS011;7137;51.436;6.544;2022-10-16T10:11:38;2.17;;;0.80;;
14116;SDS011;7137;51.436;6.544;2022-10-16T10:14:42;3.07;;;0.90;;
14116;SDS011;7137;51.436;6.544;2022-10-16T10:17:48;2.53;;;0.90;;
14116;SDS011;7137;51.436;6.544;2022-10-16T10:20:57;2.93;;;0.80;;
14116;SDS011;7137;51.436;6.544;2022-10-16T10:24:01;2.17;;;0.87;;
14116;SDS011;7137;51.436;6.544;2022-10-16T10:27:06;4.40;;;0.90;;
14116;SDS011;7137;51.436;6.544;2022-10-16T10:30:17;3.77;;;0.90;;
14116;SDS011;7137;51.436;6.544;2022-10-16T10:33:24;4.23;;;1.00;;
14116;SDS011;7137;51.436;6.544;2022-10-16T10:36:33;4.77;;;1.20;;
14116;SDS011;7137;51.436;6.544;2022-10-16T10:39:40;5.00;;;0.97;;
14116;SDS011;7137;51.436;6.544;2022-10-16T10:42:48;2.57;;;0.90;;
14116;SDS011;7137;51.436;6.544;2022-10-16T10:45:54;3.07;;;1.20;;
14116;SDS011;7137;51.436;6.544;2022-10-16T10:49:16;4.70;;;0.93;;
14116;SDS011;7137;51.436;6.544;2022-10-16T10:52:32;2.47;;;0.80;;
14116;SDS011;7137;51.436;6.544;2022-10-16T10:55:44;4.10;;;1.20;;
14116;SDS011;7137;51.436;6.544;2022-10-16T11:02:26;2.43;;;0.87;;
14116;SDS011;7137;51.436;6.544;2022-10-16T11:05:40;3.07;;;0.90;;
14116;SDS011;7137;51.436;6.544;2022-10-16T11:08:43;3.43;;;1.03;;
14116;SDS011;7137;51.436;6.544;2022-10-16T11:11:52;2.80;;;0.80;;
14116;SDS011;7137;51.436;6.544;2022-10-16T11:14:59;2.23;;;0.73;;
14116;SDS011;7137;51.436;6.544;2022-10-16T11:18:06;2.97;;;1.00;;
14116;SDS011;7137;51.436;6.544;2022-10-16T11:21:13;4.23;;;0.90;;
14116;SDS011;7137;51.436;6.544;2022-10-16T11:24:19;3.07;;;1.20;;
14116;SDS011;7137;51.436;6.544;2022-10-16T11:27:26;3.33;;;0.80;;
14116;SDS011;7137;51.436;6.544;2022-10-16T11:30:39;3.30;;;0.80;;
14116;SDS011;7137;51.436;6.544;2022-10-16T11:33:46;3.60;;;0.80;;
14116;SDS011;7137;51.436;6.544;2022-10-16T11:36:53;2.40;;;0.80;;
14116;SDS011;7137;51.436;6.544;2022-10-16T11:40:03;3.60;;;0.90;;
14116;SDS011;7137;51.436;6.544;2022-10-16T11:43:20;2.53;;;0.80;;
14116;SDS011;7137;51.436;6.544;2022-10-16T11:46:25;3.67;;;0.90;;
14116;SDS011;7137;51.436;6.544;2022-10-16T11:49:29;2.70;;;0.83;;
14116;SDS011;7137;51.436;6.544;2022-10-16T11:52:35;3.40;;;1.00;;
14116;SDS011;7137;51.436;6.544;2022-10-16T11:55:41;2.87;;;0.90;;
14116;SDS011;7137;51.436;6.544;2022-10-16T11:58:50;3.00;;;0.93;;
14116;SDS011;7137;51.436;6.544;2022-10-16T12:02:15;2.20;;;0.90;;
14116;SDS011;7137;51.436;6.544;2022-10-16T12:05:31;3.33;;;1.00;;
14116;SDS011;7137;51.436;6.544;2022-10-16T12:08:46;2.03;;;0.80;;
14116;SDS011;7137;51.436;6.544;2022-10-16T12:11:48;2.90;;;0.90;;
14116;SDS011;7137;51.436;6.544;2022-10-16T12:14:59;2.87;;;0.97;;
14116;SDS011;7137;51.436;6.544;2022-10-16T12:18:01;2.13;;;0.67;;
14116;SDS011;7137;51.436;6.544;2022-10-16T12:21:03;1.87;;;0.60;;
14116;SDS011;7137;51.436;6.544;2022-10-16T12:24:06;2.67;;;0.70;;
14116;SDS011;7137;51.436;6.544;2022-10-16T12:27:23;4.27;;;0.90;;
14116;SDS011;7137;51.436;6.544;2022-10-16T12:30:31;3.13;;;0.80;;
14116;SDS011;7137;51.436;6.544;2022-10-16T12:33:35;2.20;;;0.80;;
14116;SDS011;7137;51.436;6.544;2022-10-16T12:36:39;3.93;;;0.90;;
14116;SDS011;7137;51.436;6.544;2022-10-16T12:39:40;3.80;;;0.80;;
14116;SDS011;7137;51.436;6.544;2022-10-16T12:42:42;2.90;;;0.90;;
14116;SDS011;7137;51.436;6.544;2022-10-16T12:46:01;1.97;;;0.70;;
14116;SDS011;7137;51.436;6.544;2022-10-16T12:49:20;3.67;;;0.83;;
14116;SDS011;7137;51.436;6.544;2022-10-16T12:52:27;2.00;;;0.80;;
14116;SDS011;7137;51.436;6.544;2022-10-16T12:55:41;2.33;;;0.90;;
14116;SDS011;7137;51.436;6.544;2022-10-16T12:58:56;2.90;;;0.80;;
14116;SDS011;7137;51.436;6.544;2022-10-16T13:02:18;1.50;;;0.80;;
14116;SDS011;7137;51.436;6.544;2022-10-16T13:05:44;2.57;;;0.83;;
14116;SDS011;7137;51.436;6.544;2022-10-16T13:12:29;1.73;;;0.70;;
14116;SDS011;7137;51.436;6.544;2022-10-16T13:15:50;2.17;;;0.80;;
14116;SDS011;7137;51.436;6.544;2022-10-16T13:19:08;4.67;;;1.10;;
14116;SDS011;7137;51.436;6.544;2022-10-16T13:22:26;2.70;;;0.80;;
14116;SDS011;7137;51.436;6.544;2022-10-16T13:25:38;2.93;;;0.70;;
14116;SDS011;7137;51.436;6.544;2022-10-16T13:28:47;2.60;;;0.70;;
14116;SDS011;7137;51.436;6.544;2022-10-16T13:31:48;2.00;;;0.90;;
14116;SDS011;7137;51.436;6.544;2022-10-16T13:34:52;2.87;;;0.90;;
14116;SDS011;7137;51.436;6.544;2022-10-16T13:38:03;2.67;;;0.70;;
14116;SDS011;7137;51.436;6.544;2022-10-16T13:41:13;2.90;;;0.80;;
14116;SDS011;7137;51.436;6.544;2022-10-16T13:44:17;2.17;;;0.80;;
14116;SDS011;7137;51.436;6.544;2022-10-16T13:47:22;2.63;;;0.87;;
14116;SDS011;7137;51.436;6.544;2022-10-16T13:50:26;3.10;;;0.80;;
14116;SDS011;7137;51.436;6.544;2022-10-16T13:53:29;2.33;;;0.70;;
14116;SDS011;7137;51.436;6.544;2022-10-16T13:56:32;2.03;;;0.80;;
14116;SDS011;7137;51.436;6.544;2022-10-16T13:59:34;3.60;;;0.80;;
14116;SDS011;7137;51.436;6.544;2022-10-16T14:02:37;2.33;;;0.80;;
14116;SDS011;7137;51.436;6.544;2022-10-16T14:05:43;3.47;;;1.17;;
14116;SDS011;7137;51.436;6.544;2022-10-16T14:08:49;2.63;;;0.60;;
14116;SDS011;7137;51.436;6.544;2022-10-16T14:11:55;2.07;;;0.80;;
14116;SDS011;7137;51.436;6.544;2022-10-16T14:14:59;1.70;;;0.70;;
14116;SDS011;7137;51.436;6.544;2022-10-16T14:18:02;1.43;;;0.70;;
14116;SDS011;7137;51.436;6.544;2022-10-16T14:21:06;2.37;;;0.80;;
14116;SDS011;7137;51.436;6.544;2022-10-16T14:24:13;2.40;;;0.80;;
14116;SDS011;7137;51.436;6.544;2022-10-16T14:27:26;2.87;;;0.80;;
14116;SDS011;7137;51.436;6.544;2022-10-16T14:30:31;2.43;;;1.00;;
14116;SDS011;7137;51.436;6.544;2022-10-16T14:33:35;2.67;;;1.00;;
14116;SDS011;7137;51.436;6.544;2022-10-16T14:36:40;3.57;;;1.33;;
14116;SDS011;7137;51.436;6.544;2022-10-16T14:39:42;4.10;;;1.47;;
14116;SDS011;7137;51.436;6.544;2022-10-16T14:42:43;2.57;;;1.07;;
14116;SDS011;7137;51.436;6.544;2022-10-16T14:45:49;3.37;;;0.87;;
14116;SDS011;7137;51.436;6.544;2022-10-16T14:48:54;3.10;;;0.80;;
14116;SDS011;7137;51.436;6.544;2022-10-16T14:52:04;3.30;;;1.00;;
14116;SDS011;7137;51.436;6.544;2022-10-16T14:55:09;3.37;;;1.10;;
14116;SDS011;7137;51.436;6.544;2022-10-16T14:58:11;2.40;;;0.90;;
14116;SDS011;7137;51.436;6.544;2022-10-16T15:01:16;3.50;;;1.00;;
14116;SDS011;7137;51.436;6.544;2022-10-16T15:04:18;2.17;;;0.80;;
14116;SDS011;7137;51.436;6.544;2022-10-16T15:07:21;3.77;;;1.50;;
14116;SDS011;7137;51.436;6.544;2022-10-16T15:10:23;3.43;;;1.40;;
14116;SDS011;7137;51.436;6.544;2022-10-16T15:13:27;4.37;;;1.30;;
14116;SDS011;7137;51.436;6.544;2022-10-16T15:16:28;2.90;;;1.13;;
14116;SDS011;7137;51.436;6.544;2022-10-16T15:19:30;3.70;;;1.10;;
14116;SDS011;7137;51.436;6.544;2022-10-16T15:22:33;1.93;;;1.00;;
14116;SDS011;7137;51.436;6.544;2022-10-16T15:25:37;3.83;;;1.10;;
14116;SDS011;7137;51.436;6.544;2022-10-16T15:28:41;2.73;;;1.10;;
14116;SDS011;7137;51.436;6.544;2022-10-16T15:31:43;2.77;;;1.00;;
14116;SDS011;7137;51.436;6.544;2022-10-16T15:34:47;4.90;;;1.13;;
14116;SDS011;7137;51.436;6.544;2022-10-16T15:37:50;3.17;;;1.47;;
14116;SDS011;7137;51.436;6.544;2022-10-16T15:40:51;2.57;;;1.20;;
14116;SDS011;7137;51.436;6.544;2022-10-16T15:43:53;3.73;;;1.20;;
14116;SDS011;7137;51.436;6.544;2022-10-16T15:46:54;3.43;;;1.27;;
14116;SDS011;7137;51.436;6.544;2022-10-16T15:49:56;3.20;;;1.20;;
14116;SDS011;7137;51.436;6.544;2022-10-16T15:52:59;2.47;;;1.07;;
14116;SDS011;7137;51.436;6.544;2022-10-16T15:56:01;3.53;;;1.20;;
14116;SDS011;7137;51.436;6.544;2022-10-16T15:59:02;3.27;;;1.30;;
14116;SDS011;7137;51.436;6.544;2022-10-16T16:02:04;2.23;;;1.00;;
14116;SDS011;7137;51.436;6.544;2022-10-16T16:05:06;2.00;;;1.10;;
14116;SDS011;7137;51.436;6.544;2022-10-16T16:08:10;2.90;;;1.20;;
14116;SDS011;7137;51.436;6.544;2022-10-16T16:11:13;4.27;;;1.30;;
14116;SDS011;7137;51.436;6.544;2022-10-16T16:14:16;3.70;;;1.30;;
14116;SDS011;7137;51.436;6.544;2022-10-16T16:17:17;3.47;;;1.30;;
14116;SDS011;7137;51.436;6.544;2022-10-16T16:20:19;2.80;;;1.27;;
14116;SDS011;7137;51.436;6.544;2022-10-16T16:23:22;3.30;;;1.40;;
14116;SDS011;7137;51.436;6.544;2022-10-16T16:26:24;4.03;;;1.50;;
14116;SDS011;7137;51.436;6.544;2022-10-16T16:29:27;3.13;;;1.30;;
14116;SDS011;7137;51.436;6.544;2022-10-16T16:32:28;3.90;;;1.90;;
14116;SDS011;7137;51.436;6.544;2022-10-16T16:35:29;4.00;;;2.00;;
14116;SDS011;7137;51.436;6.544;2022-10-16T16:38:32;4.83;;;2.40;;
14116;SDS011;7137;51.436;6.544;2022-10-16T16:41:34;6.40;;;2.97;;
14116;SDS011;7137;51.436;6.544;2022-10-16T16:44:36;5.03;;;2.40;;
14116;SDS011;7137;51.436;6.544;2022-10-16T16:47:37;4.43;;;2.17;;
14116;SDS011;7137;51.436;6.544;2022-10-16T16:50:39;4.97;;;2.40;;
14116;SDS011;7137;51.436;6.544;2022-10-16T16:53:42;4.53;;;2.40;;
14116;SDS011;7137;51.436;6.544;2022-10-16T16:56:44;5.33;;;2.50;;
14116;SDS011;7137;51.436;6.544;2022-10-16T16:59:46;6.57;;;2.60;;
14116;SDS011;7137;51.436;6.544;2022-10-16T17:02:50;5.43;;;2.93;;
14116;SDS011;7137;51.436;6.544;2022-10-16T17:05:55;6.80;;;4.20;;
14116;SDS011;7137;51.436;6.544;2022-10-16T17:09:00;7.93;;;3.93;;
14116;SDS011;7137;51.436;6.544;2022-10-16T17:12:02;6.57;;;4.50;;
14116;SDS011;7137;51.436;6.544;2022-10-16T17:15:04;7.53;;;4.40;;
14116;SDS011;7137;51.436;6.544;2022-10-16T17:18:06;6.17;;;4.00;;
14116;SDS011;7137;51.436;6.544;2022-10-16T17:21:08;6.87;;;4.00;;
14116;SDS011;7137;51.436;6.544;2022-10-16T17:24:11;7.90;;;4.50;;
14116;SDS011;7137;51.436;6.544;2022-10-16T17:27:12;6.63;;;4.00;;
14116;SDS011;7137;51.436;6.544;2022-10-16T17:30:15;6.53;;;3.77;;
14116;SDS011;7137;51.436;6.544;2022-10-16T17:33:16;7.27;;;4.40;;
14116;SDS011;7137;51.436;6.544;2022-10-16T17:36:18;6.67;;;4.57;;
14116;SDS011;7137;51.436;6.544;2022-10-16T17:39:21;7.13;;;4.63;;
14116;SDS011;7137;51.436;6.544;2022-10-16T17:42:23;7.37;;;5.07;;
14116;SDS011;7137;51.436;6.544;2022-10-16T17:45:24;6.60;;;4.80;;
14116;SDS011;7137;51.436;6.544;2022-10-16T17:48:26;7.03;;;5.00;;
14116;SDS011;7137;51.436;6.544;2022-10-16T17:51:28;7.60;;;4.20;;
14116;SDS011;7137;51.436;6.544;2022-10-16T17:54:32;6.87;;;4.23;;
14116;SDS011;7137;51.436;6.544;2022-10-16T17:57:34;6.97;;;3.70;;
14116;SDS011;7137;51.436;6.544;2022-10-16T18:00:36;5.73;;;3.53;;
14116;SDS011;7137;51.436;6.544;2022-10-16T18:03:37;6.53;;;3.37;;
14116;SDS011;7137;51.436;6.544;2022-10-16T18:06:39;5.97;;;3.63;;
14116;SDS011;7137;51.436;6.544;2022-10-16T18:09:44;6.63;;;3.33;;
14116;SDS011;7137;51.436;6.544;2022-10-16T18:12:45;7.77;;;3.20;;
14116;SDS011;7137;51.436;6.544;2022-10-16T18:15:47;5.97;;;3.20;;
14116;SDS011;7137;51.436;6.544;2022-10-16T18:19:00;5.97;;;3.50;;
14116;SDS011;7137;51.436;6.544;2022-10-16T18:22:02;6.70;;;3.50;;
14116;SDS011;7137;51.436;6.544;2022-10-16T18:25:05;5.97;;;3.27;;
14116;SDS011;7137;51.436;6.544;2022-10-16T18:28:07;6.57;;;3.27;;
14116;SDS011;7137;51.436;6.544;2022-10-16T18:31:10;6.70;;;3.33;;
14116;SDS011;7137;51.436;6.544;2022-10-16T18:34:13;6.00;;;3.00;;
14116;SDS011;7137;51.436;6.544;2022-10-16T18:37:14;5.13;;;3.10;;
14116;SDS011;7137;51.436;6.544;2022-10-16T18:40:17;5.63;;;3.00;;
14116;SDS011;7137;51.436;6.544;2022-10-16T18:43:19;5.53;;;2.83;;
14116;SDS011;7137;51.436;6.544;2022-10-16T18:46:21;6.03;;;3.13;;
14116;SDS011;7137;51.436;6.544;2022-10-16T18:49:25;5.90;;;3.37;;
14116;SDS011;7137;51.436;6.544;2022-10-16T18:52:27;5.67;;;3.10;;
14116;SDS011;7137;51.436;6.544;2022-10-16T18:55:29;6.20;;;3.30;;